Terminal Aerodrome Forecast
Issued by NWS

Home | Current Version | Previous Version | Graphics & Text | Print | Product List | Glossary On
Versions: 1 2 3 4 5 6 7 8 9 10 11 12 13 14 15 16 17
000
FTUS43 KTOP 301120
TAFFOE
TAF
KFOE 301120Z 3012/0112 29007KT P6SM BKN035
     FM301500 29015G25KT P6SM SCT040
     FM302300 27005KT P6SM FEW040=

USA.gov is the U.S. government's official web portal to all federal, state and local government web resources and services.